済州 の空港の天気 - METARとTAF

済州国際空港 ( RKPC / CJU ) - 韓国 済州
飛行場実況気象(Metar)
観測時間09/26 05:00 KST (09/25 20:00 UTC)
風向・風速南南東 2m/s
視程10km以上
天気現象
少しの雲 雲底高度 760m
全天の8割程度の雲 雲底高度 4270m
気温20℃
湿度68%
気圧1015hPa
METARRKPC 252000Z 15004KT 9999 FEW025 BKN140 20/14 Q1015 NOSIG
過去の天気等 Google飛行場航空写真 Wunderground天気予報

過去48時間のMETAR

飛行場予報(TAF)
発表時間: 9/26 02:00 KST (9/25 17:00 UTC)
予報対象時間: 26日3時 KST ~ 27日9時 KST
風向・風速南東 3m/s
視程10km以上
全天の4割程度の雲 雲底高度 910m
全天の8割程度の雲 雲底高度 4570m
26日8時 KST ~ 26日9時 KST に徐々に
風向・風速東北東 6m/s
26日20時 KST ~ 26日21時 KST に徐々に
風向・風速南東 3m/s
27日1時 KST ~ 27日5時 KST に一時的に
風向・風速東 4m/s
天気現象弱い雨
全天の4割程度の雲 雲底高度 910m
全天の8割程度の雲 雲底高度 2440m
27日7時 KST ~ 27日8時 KST に徐々に
風向・風速東北東 5m/s
TAF RKPC 251700Z 2518/2624 13006KT 9999 SCT030 BKN150 TN20/2518Z TX24/2604Z TN20/2619Z
BECMG 2523/2524 07012KT
BECMG 2611/2612 13006KT
TEMPO 2616/2620 10007KT -RA SCT030 BKN080
BECMG 2622/2623 07010KT